sensor_id;sensor_type;location;lat;lon;timestamp;P1;durP1;ratioP1;P2;durP2;ratioP2
15655;SDS011;7928;43.614;1.456;2023-11-19T00:00:27;18.87;;;14.43;;
15655;SDS011;7928;43.614;1.456;2023-11-19T00:02:54;18.23;;;13.23;;
15655;SDS011;7928;43.614;1.456;2023-11-19T00:05:21;18.93;;;14.00;;
15655;SDS011;7928;43.614;1.456;2023-11-19T00:07:50;19.53;;;13.83;;
15655;SDS011;7928;43.614;1.456;2023-11-19T00:10:17;20.17;;;14.90;;
15655;SDS011;7928;43.614;1.456;2023-11-19T00:12:46;19.73;;;14.97;;
15655;SDS011;7928;43.614;1.456;2023-11-19T00:15:14;20.77;;;14.90;;
15655;SDS011;7928;43.614;1.456;2023-11-19T00:17:44;17.40;;;14.57;;
15655;SDS011;7928;43.614;1.456;2023-11-19T00:20:12;20.40;;;14.77;;
15655;SDS011;7928;43.614;1.456;2023-11-19T00:22:40;20.37;;;15.13;;
15655;SDS011;7928;43.614;1.456;2023-11-19T00:25:09;21.90;;;15.23;;
15655;SDS011;7928;43.614;1.456;2023-11-19T00:27:36;19.60;;;14.73;;
15655;SDS011;7928;43.614;1.456;2023-11-19T00:30:03;19.93;;;14.57;;
15655;SDS011;7928;43.614;1.456;2023-11-19T00:32:31;20.00;;;13.80;;
15655;SDS011;7928;43.614;1.456;2023-11-19T00:34:58;18.00;;;13.77;;
15655;SDS011;7928;43.614;1.456;2023-11-19T00:37:25;22.23;;;14.47;;
15655;SDS011;7928;43.614;1.456;2023-11-19T00:39:52;19.27;;;14.17;;
15655;SDS011;7928;43.614;1.456;2023-11-19T00:42:22;20.70;;;14.63;;
15655;SDS011;7928;43.614;1.456;2023-11-19T00:44:49;17.13;;;12.97;;
15655;SDS011;7928;43.614;1.456;2023-11-19T00:47:16;19.63;;;14.27;;
15655;SDS011;7928;43.614;1.456;2023-11-19T00:49:45;25.93;;;13.00;;
15655;SDS011;7928;43.614;1.456;2023-11-19T00:52:13;17.13;;;13.57;;
15655;SDS011;7928;43.614;1.456;2023-11-19T00:54:40;24.33;;;13.23;;
15655;SDS011;7928;43.614;1.456;2023-11-19T00:57:07;16.10;;;12.53;;
15655;SDS011;7928;43.614;1.456;2023-11-19T00:59:35;15.87;;;12.20;;
15655;SDS011;7928;43.614;1.456;2023-11-19T01:02:03;20.73;;;13.10;;
15655;SDS011;7928;43.614;1.456;2023-11-19T01:04:33;14.23;;;11.27;;
15655;SDS011;7928;43.614;1.456;2023-11-19T01:07:01;14.07;;;11.13;;
15655;SDS011;7928;43.614;1.456;2023-11-19T01:09:30;17.83;;;12.73;;
15655;SDS011;7928;43.614;1.456;2023-11-19T01:11:59;16.73;;;12.30;;
15655;SDS011;7928;43.614;1.456;2023-11-19T01:14:26;18.03;;;11.43;;
15655;SDS011;7928;43.614;1.456;2023-11-19T01:16:55;20.03;;;11.30;;
15655;SDS011;7928;43.614;1.456;2023-11-19T01:19:22;14.73;;;11.07;;
15655;SDS011;7928;43.614;1.456;2023-11-19T01:21:49;15.57;;;12.03;;
15655;SDS011;7928;43.614;1.456;2023-11-19T01:24:16;18.10;;;11.47;;
15655;SDS011;7928;43.614;1.456;2023-11-19T01:26:43;14.40;;;11.07;;
15655;SDS011;7928;43.614;1.456;2023-11-19T01:29:11;13.10;;;9.87;;
15655;SDS011;7928;43.614;1.456;2023-11-19T01:31:39;14.30;;;10.70;;
15655;SDS011;7928;43.614;1.456;2023-11-19T01:34:07;16.00;;;10.83;;
15655;SDS011;7928;43.614;1.456;2023-11-19T01:36:34;11.80;;;9.23;;
15655;SDS011;7928;43.614;1.456;2023-11-19T01:39:01;16.97;;;10.30;;
15655;SDS011;7928;43.614;1.456;2023-11-19T01:41:29;11.87;;;9.10;;
15655;SDS011;7928;43.614;1.456;2023-11-19T01:43:59;14.53;;;9.90;;
15655;SDS011;7928;43.614;1.456;2023-11-19T01:46:26;11.53;;;9.33;;
15655;SDS011;7928;43.614;1.456;2023-11-19T01:48:54;12.07;;;9.23;;
15655;SDS011;7928;43.614;1.456;2023-11-19T01:51:23;14.67;;;9.87;;
15655;SDS011;7928;43.614;1.456;2023-11-19T01:53:50;13.63;;;9.73;;
15655;SDS011;7928;43.614;1.456;2023-11-19T01:56:16;14.60;;;9.87;;
15655;SDS011;7928;43.614;1.456;2023-11-19T01:58:44;15.50;;;9.33;;
15655;SDS011;7928;43.614;1.456;2023-11-19T02:01:12;13.13;;;9.23;;
15655;SDS011;7928;43.614;1.456;2023-11-19T02:03:40;16.40;;;10.50;;
15655;SDS011;7928;43.614;1.456;2023-11-19T02:06:08;13.97;;;9.37;;
15655;SDS011;7928;43.614;1.456;2023-11-19T02:08:37;14.87;;;10.33;;
15655;SDS011;7928;43.614;1.456;2023-11-19T02:11:04;16.27;;;10.23;;
15655;SDS011;7928;43.614;1.456;2023-11-19T02:13:32;12.37;;;9.47;;
15655;SDS011;7928;43.614;1.456;2023-11-19T02:16:01;11.87;;;9.10;;
15655;SDS011;7928;43.614;1.456;2023-11-19T02:18:28;14.60;;;10.53;;
15655;SDS011;7928;43.614;1.456;2023-11-19T02:20:55;17.73;;;9.43;;
15655;SDS011;7928;43.614;1.456;2023-11-19T02:23:23;15.33;;;10.60;;
15655;SDS011;7928;43.614;1.456;2023-11-19T02:25:57;13.33;;;10.10;;
15655;SDS011;7928;43.614;1.456;2023-11-19T02:28:35;13.47;;;10.20;;
15655;SDS011;7928;43.614;1.456;2023-11-19T02:31:02;14.73;;;10.37;;
15655;SDS011;7928;43.614;1.456;2023-11-19T02:33:34;16.50;;;9.63;;
15655;SDS011;7928;43.614;1.456;2023-11-19T02:36:01;13.33;;;10.13;;
15655;SDS011;7928;43.614;1.456;2023-11-19T02:38:28;12.10;;;9.30;;
15655;SDS011;7928;43.614;1.456;2023-11-19T02:40:56;13.63;;;9.43;;
15655;SDS011;7928;43.614;1.456;2023-11-19T02:43:22;14.13;;;9.60;;
15655;SDS011;7928;43.614;1.456;2023-11-19T02:45:51;14.33;;;10.00;;
15655;SDS011;7928;43.614;1.456;2023-11-19T02:48:20;13.33;;;9.33;;
15655;SDS011;7928;43.614;1.456;2023-11-19T02:50:47;12.57;;;9.17;;
15655;SDS011;7928;43.614;1.456;2023-11-19T02:53:14;11.43;;;9.23;;
15655;SDS011;7928;43.614;1.456;2023-11-19T02:55:42;13.53;;;9.03;;
15655;SDS011;7928;43.614;1.456;2023-11-19T02:58:13;11.67;;;8.63;;
15655;SDS011;7928;43.614;1.456;2023-11-19T03:00:48;10.67;;;8.40;;
15655;SDS011;7928;43.614;1.456;2023-11-19T03:03:22;11.63;;;8.43;;
15655;SDS011;7928;43.614;1.456;2023-11-19T03:05:56;11.53;;;8.40;;
15655;SDS011;7928;43.614;1.456;2023-11-19T03:08:23;11.60;;;8.13;;
15655;SDS011;7928;43.614;1.456;2023-11-19T03:10:49;14.03;;;9.07;;
15655;SDS011;7928;43.614;1.456;2023-11-19T03:13:16;13.97;;;8.80;;
15655;SDS011;7928;43.614;1.456;2023-11-19T03:15:43;12.67;;;8.63;;
15655;SDS011;7928;43.614;1.456;2023-11-19T03:18:12;12.97;;;8.97;;
15655;SDS011;7928;43.614;1.456;2023-11-19T03:20:39;11.67;;;8.80;;
15655;SDS011;7928;43.614;1.456;2023-11-19T03:23:06;17.13;;;8.33;;
15655;SDS011;7928;43.614;1.456;2023-11-19T03:25:33;12.73;;;8.70;;
15655;SDS011;7928;43.614;1.456;2023-11-19T03:28:01;11.20;;;7.83;;
15655;SDS011;7928;43.614;1.456;2023-11-19T03:30:29;16.07;;;9.03;;
15655;SDS011;7928;43.614;1.456;2023-11-19T03:32:56;10.90;;;8.03;;
15655;SDS011;7928;43.614;1.456;2023-11-19T03:35:26;11.03;;;8.90;;
15655;SDS011;7928;43.614;1.456;2023-11-19T03:37:53;10.13;;;8.10;;
15655;SDS011;7928;43.614;1.456;2023-11-19T03:40:20;12.70;;;7.43;;
15655;SDS011;7928;43.614;1.456;2023-11-19T03:42:47;13.60;;;8.53;;
15655;SDS011;7928;43.614;1.456;2023-11-19T03:45:14;10.50;;;7.50;;
15655;SDS011;7928;43.614;1.456;2023-11-19T03:47:41;10.83;;;8.27;;
15655;SDS011;7928;43.614;1.456;2023-11-19T03:50:08;11.73;;;7.53;;
15655;SDS011;7928;43.614;1.456;2023-11-19T03:52:37;10.67;;;7.93;;
15655;SDS011;7928;43.614;1.456;2023-11-19T03:55:04;10.83;;;7.63;;
15655;SDS011;7928;43.614;1.456;2023-11-19T03:57:33;14.13;;;7.90;;
15655;SDS011;7928;43.614;1.456;2023-11-19T04:00:00;12.07;;;7.40;;
15655;SDS011;7928;43.614;1.456;2023-11-19T04:02:34;10.40;;;7.90;;
15655;SDS011;7928;43.614;1.456;2023-11-19T04:05:01;9.80;;;7.77;;
15655;SDS011;7928;43.614;1.456;2023-11-19T04:07:28;12.57;;;8.37;;
15655;SDS011;7928;43.614;1.456;2023-11-19T04:09:56;10.90;;;7.30;;
15655;SDS011;7928;43.614;1.456;2023-11-19T04:12:23;10.63;;;7.23;;
15655;SDS011;7928;43.614;1.456;2023-11-19T04:14:50;12.23;;;7.57;;
15655;SDS011;7928;43.614;1.456;2023-11-19T04:17:17;11.10;;;7.17;;
15655;SDS011;7928;43.614;1.456;2023-11-19T04:19:44;11.30;;;7.23;;
15655;SDS011;7928;43.614;1.456;2023-11-19T04:22:10;12.67;;;7.20;;
15655;SDS011;7928;43.614;1.456;2023-11-19T04:24:37;12.70;;;7.73;;
15655;SDS011;7928;43.614;1.456;2023-11-19T04:27:07;10.00;;;7.57;;
15655;SDS011;7928;43.614;1.456;2023-11-19T04:29:34;11.63;;;6.50;;
15655;SDS011;7928;43.614;1.456;2023-11-19T04:32:01;10.73;;;7.17;;
15655;SDS011;7928;43.614;1.456;2023-11-19T04:34:28;11.13;;;7.47;;
15655;SDS011;7928;43.614;1.456;2023-11-19T04:36:55;11.33;;;6.93;;
15655;SDS011;7928;43.614;1.456;2023-11-19T04:39:22;12.67;;;8.30;;
15655;SDS011;7928;43.614;1.456;2023-11-19T04:41:49;11.43;;;6.43;;
15655;SDS011;7928;43.614;1.456;2023-11-19T04:44:19;14.03;;;8.63;;
15655;SDS011;7928;43.614;1.456;2023-11-19T04:46:47;10.77;;;8.03;;
15655;SDS011;7928;43.614;1.456;2023-11-19T04:49:14;11.23;;;7.83;;
15655;SDS011;7928;43.614;1.456;2023-11-19T04:51:42;11.40;;;7.73;;
15655;SDS011;7928;43.614;1.456;2023-11-19T04:54:09;9.60;;;8.20;;
15655;SDS011;7928;43.614;1.456;2023-11-19T04:56:36;9.47;;;8.33;;
15655;SDS011;7928;43.614;1.456;2023-11-19T04:59:05;13.37;;;9.00;;
15655;SDS011;7928;43.614;1.456;2023-11-19T05:01:33;11.93;;;8.60;;
15655;SDS011;7928;43.614;1.456;2023-11-19T05:04:00;12.33;;;8.90;;
15655;SDS011;7928;43.614;1.456;2023-11-19T05:06:28;15.27;;;9.23;;
15655;SDS011;7928;43.614;1.456;2023-11-19T05:08:55;11.63;;;8.87;;
15655;SDS011;7928;43.614;1.456;2023-11-19T05:11:26;15.90;;;9.20;;
15655;SDS011;7928;43.614;1.456;2023-11-19T05:13:53;15.17;;;9.63;;
15655;SDS011;7928;43.614;1.456;2023-11-19T05:16:20;17.27;;;9.23;;
15655;SDS011;7928;43.614;1.456;2023-11-19T05:18:48;13.20;;;9.80;;
15655;SDS011;7928;43.614;1.456;2023-11-19T05:21:15;13.90;;;9.20;;
15655;SDS011;7928;43.614;1.456;2023-11-19T05:23:42;10.93;;;9.37;;
15655;SDS011;7928;43.614;1.456;2023-11-19T05:26:09;15.57;;;9.93;;
15655;SDS011;7928;43.614;1.456;2023-11-19T05:28:43;12.30;;;9.23;;
15655;SDS011;7928;43.614;1.456;2023-11-19T05:31:10;14.97;;;10.63;;
15655;SDS011;7928;43.614;1.456;2023-11-19T05:33:37;18.10;;;10.20;;
15655;SDS011;7928;43.614;1.456;2023-11-19T05:36:06;11.63;;;9.73;;
15655;SDS011;7928;43.614;1.456;2023-11-19T05:38:34;12.10;;;9.20;;
15655;SDS011;7928;43.614;1.456;2023-11-19T05:41:01;15.07;;;10.20;;
15655;SDS011;7928;43.614;1.456;2023-11-19T05:43:28;14.10;;;10.17;;
15655;SDS011;7928;43.614;1.456;2023-11-19T05:45:55;13.37;;;9.60;;
15655;SDS011;7928;43.614;1.456;2023-11-19T05:48:22;13.80;;;10.13;;
15655;SDS011;7928;43.614;1.456;2023-11-19T05:50:49;13.83;;;9.50;;
15655;SDS011;7928;43.614;1.456;2023-11-19T05:53:17;12.90;;;9.60;;
15655;SDS011;7928;43.614;1.456;2023-11-19T05:55:44;15.80;;;10.17;;
15655;SDS011;7928;43.614;1.456;2023-11-19T05:58:19;13.43;;;9.57;;
15655;SDS011;7928;43.614;1.456;2023-11-19T06:00:48;15.97;;;9.63;;
15655;SDS011;7928;43.614;1.456;2023-11-19T06:03:15;13.40;;;9.40;;
15655;SDS011;7928;43.614;1.456;2023-11-19T06:05:44;13.03;;;9.37;;
15655;SDS011;7928;43.614;1.456;2023-11-19T06:08:11;13.00;;;10.23;;
15655;SDS011;7928;43.614;1.456;2023-11-19T06:10:41;12.13;;;9.73;;
15655;SDS011;7928;43.614;1.456;2023-11-19T06:13:08;13.13;;;9.97;;
15655;SDS011;7928;43.614;1.456;2023-11-19T06:15:36;11.20;;;9.33;;
15655;SDS011;7928;43.614;1.456;2023-11-19T06:18:03;12.60;;;9.27;;
15655;SDS011;7928;43.614;1.456;2023-11-19T06:20:30;12.00;;;9.67;;
15655;SDS011;7928;43.614;1.456;2023-11-19T06:22:58;12.97;;;9.30;;
15655;SDS011;7928;43.614;1.456;2023-11-19T06:25:25;13.70;;;9.67;;
15655;SDS011;7928;43.614;1.456;2023-11-19T06:27:54;10.97;;;9.13;;
15655;SDS011;7928;43.614;1.456;2023-11-19T06:30:22;12.83;;;9.07;;
15655;SDS011;7928;43.614;1.456;2023-11-19T06:32:49;10.87;;;8.63;;
15655;SDS011;7928;43.614;1.456;2023-11-19T06:35:16;12.63;;;8.60;;
15655;SDS011;7928;43.614;1.456;2023-11-19T06:37:43;12.53;;;9.10;;
15655;SDS011;7928;43.614;1.456;2023-11-19T06:40:10;15.27;;;8.93;;
15655;SDS011;7928;43.614;1.456;2023-11-19T06:42:38;11.03;;;9.73;;
15655;SDS011;7928;43.614;1.456;2023-11-19T06:45:06;14.27;;;9.87;;
15655;SDS011;7928;43.614;1.456;2023-11-19T06:47:34;12.60;;;9.57;;
15655;SDS011;7928;43.614;1.456;2023-11-19T06:50:01;10.83;;;9.27;;
15655;SDS011;7928;43.614;1.456;2023-11-19T06:52:30;11.00;;;9.50;;
15655;SDS011;7928;43.614;1.456;2023-11-19T06:54:57;12.00;;;9.50;;
15655;SDS011;7928;43.614;1.456;2023-11-19T06:57:24;13.03;;;9.87;;
15655;SDS011;7928;43.614;1.456;2023-11-19T06:59:52;11.77;;;9.23;;
15655;SDS011;7928;43.614;1.456;2023-11-19T07:02:20;14.53;;;10.00;;
15655;SDS011;7928;43.614;1.456;2023-11-19T07:04:47;11.37;;;9.17;;
15655;SDS011;7928;43.614;1.456;2023-11-19T07:07:14;12.10;;;9.33;;
15655;SDS011;7928;43.614;1.456;2023-11-19T07:09:41;12.60;;;9.83;;
15655;SDS011;7928;43.614;1.456;2023-11-19T07:12:08;12.20;;;9.07;;
15655;SDS011;7928;43.614;1.456;2023-11-19T07:14:35;11.40;;;8.83;;
15655;SDS011;7928;43.614;1.456;2023-11-19T07:17:03;14.73;;;9.00;;
15655;SDS011;7928;43.614;1.456;2023-11-19T07:19:32;12.83;;;8.70;;
15655;SDS011;7928;43.614;1.456;2023-11-19T07:22:00;12.30;;;9.33;;
15655;SDS011;7928;43.614;1.456;2023-11-19T07:24:27;11.03;;;9.40;;
15655;SDS011;7928;43.614;1.456;2023-11-19T07:26:54;13.03;;;9.30;;
15655;SDS011;7928;43.614;1.456;2023-11-19T07:29:21;12.50;;;8.93;;
15655;SDS011;7928;43.614;1.456;2023-11-19T07:31:48;12.90;;;8.83;;
15655;SDS011;7928;43.614;1.456;2023-11-19T07:34:16;17.47;;;9.37;;
15655;SDS011;7928;43.614;1.456;2023-11-19T07:36:44;13.00;;;9.70;;
15655;SDS011;7928;43.614;1.456;2023-11-19T07:39:11;11.87;;;10.10;;
15655;SDS011;7928;43.614;1.456;2023-11-19T07:41:38;14.80;;;9.50;;
15655;SDS011;7928;43.614;1.456;2023-11-19T07:44:05;13.53;;;9.00;;
15655;SDS011;7928;43.614;1.456;2023-11-19T07:46:32;13.33;;;9.20;;
15655;SDS011;7928;43.614;1.456;2023-11-19T07:48:59;12.40;;;9.43;;
15655;SDS011;7928;43.614;1.456;2023-11-19T07:51:27;11.60;;;9.43;;
15655;SDS011;7928;43.614;1.456;2023-11-19T07:53:56;14.93;;;9.80;;
15655;SDS011;7928;43.614;1.456;2023-11-19T07:56:23;12.10;;;9.10;;
15655;SDS011;7928;43.614;1.456;2023-11-19T07:58:50;12.47;;;8.83;;
15655;SDS011;7928;43.614;1.456;2023-11-19T08:01:17;11.47;;;9.00;;
15655;SDS011;7928;43.614;1.456;2023-11-19T08:03:44;11.80;;;9.67;;
15655;SDS011;7928;43.614;1.456;2023-11-19T08:06:10;12.87;;;9.03;;
15655;SDS011;7928;43.614;1.456;2023-11-19T08:08:38;12.77;;;10.00;;
15655;SDS011;7928;43.614;1.456;2023-11-19T08:11:06;15.03;;;9.97;;
15655;SDS011;7928;43.614;1.456;2023-11-19T08:13:33;13.23;;;9.87;;
15655;SDS011;7928;43.614;1.456;2023-11-19T08:16:00;11.80;;;9.97;;
15655;SDS011;7928;43.614;1.456;2023-11-19T08:18:27;11.73;;;9.37;;
15655;SDS011;7928;43.614;1.456;2023-11-19T08:20:54;12.53;;;10.23;;
15655;SDS011;7928;43.614;1.456;2023-11-19T08:23:23;14.50;;;10.53;;
15655;SDS011;7928;43.614;1.456;2023-11-19T08:25:50;13.43;;;9.40;;
15655;SDS011;7928;43.614;1.456;2023-11-19T08:28:19;11.80;;;8.30;;
15655;SDS011;7928;43.614;1.456;2023-11-19T08:30:46;11.80;;;8.20;;
15655;SDS011;7928;43.614;1.456;2023-11-19T08:33:13;10.73;;;8.23;;
15655;SDS011;7928;43.614;1.456;2023-11-19T08:35:40;13.67;;;8.13;;
15655;SDS011;7928;43.614;1.456;2023-11-19T08:38:07;11.90;;;8.23;;
15655;SDS011;7928;43.614;1.456;2023-11-19T08:40:34;10.07;;;8.23;;
15655;SDS011;7928;43.614;1.456;2023-11-19T08:43:01;13.13;;;8.20;;
15655;SDS011;7928;43.614;1.456;2023-11-19T08:45:30;10.50;;;8.57;;
15655;SDS011;7928;43.614;1.456;2023-11-19T08:47:57;11.07;;;7.90;;
15655;SDS011;7928;43.614;1.456;2023-11-19T08:50:24;14.43;;;7.73;;
15655;SDS011;7928;43.614;1.456;2023-11-19T08:52:51;10.63;;;8.37;;
15655;SDS011;7928;43.614;1.456;2023-11-19T08:55:18;11.30;;;8.70;;
15655;SDS011;7928;43.614;1.456;2023-11-19T08:57:45;12.67;;;9.07;;
15655;SDS011;7928;43.614;1.456;2023-11-19T09:00:12;11.97;;;8.27;;
15655;SDS011;7928;43.614;1.456;2023-11-19T09:02:41;13.60;;;9.13;;
15655;SDS011;7928;43.614;1.456;2023-11-19T09:05:09;11.00;;;8.10;;
15655;SDS011;7928;43.614;1.456;2023-11-19T09:07:36;11.37;;;8.07;;
15655;SDS011;7928;43.614;1.456;2023-11-19T09:10:03;11.33;;;7.90;;
15655;SDS011;7928;43.614;1.456;2023-11-19T09:12:31;11.40;;;8.20;;
15655;SDS011;7928;43.614;1.456;2023-11-19T09:14:57;10.13;;;7.50;;
15655;SDS011;7928;43.614;1.456;2023-11-19T09:17:24;10.83;;;8.00;;
15655;SDS011;7928;43.614;1.456;2023-11-19T09:19:53;10.87;;;8.20;;
15655;SDS011;7928;43.614;1.456;2023-11-19T09:22:19;13.83;;;8.53;;
15655;SDS011;7928;43.614;1.456;2023-11-19T09:24:46;11.30;;;7.87;;
15655;SDS011;7928;43.614;1.456;2023-11-19T09:27:13;9.37;;;8.20;;
15655;SDS011;7928;43.614;1.456;2023-11-19T09:29:40;10.40;;;7.90;;
15655;SDS011;7928;43.614;1.456;2023-11-19T09:32:08;11.77;;;7.93;;
15655;SDS011;7928;43.614;1.456;2023-11-19T09:34:35;10.53;;;7.53;;
15655;SDS011;7928;43.614;1.456;2023-11-19T09:37:03;13.17;;;7.87;;
15655;SDS011;7928;43.614;1.456;2023-11-19T09:39:30;11.10;;;7.93;;
15655;SDS011;7928;43.614;1.456;2023-11-19T09:41:57;8.83;;;7.50;;
15655;SDS011;7928;43.614;1.456;2023-11-19T09:44:24;8.73;;;6.47;;
15655;SDS011;7928;43.614;1.456;2023-11-19T09:46:52;8.90;;;7.13;;
15655;SDS011;7928;43.614;1.456;2023-11-19T09:49:20;8.07;;;7.27;;
15655;SDS011;7928;43.614;1.456;2023-11-19T09:51:48;12.10;;;7.17;;
15655;SDS011;7928;43.614;1.456;2023-11-19T09:54:17;8.00;;;7.17;;
15655;SDS011;7928;43.614;1.456;2023-11-19T09:56:44;7.47;;;6.77;;
15655;SDS011;7928;43.614;1.456;2023-11-19T09:59:12;11.40;;;6.70;;
15655;SDS011;7928;43.614;1.456;2023-11-19T10:01:39;7.23;;;6.50;;
15655;SDS011;7928;43.614;1.456;2023-11-19T10:04:06;8.95;;;7.03;;
15655;SDS011;7928;43.614;1.456;2023-11-19T10:06:33;7.13;;;6.45;;
15655;SDS011;7928;43.614;1.456;2023-11-19T10:09:00;9.65;;;6.63;;
15655;SDS011;7928;43.614;1.456;2023-11-19T10:11:31;11.88;;;7.20;;
15655;SDS011;7928;43.614;1.456;2023-11-19T10:13:58;8.63;;;7.40;;
15655;SDS011;7928;43.614;1.456;2023-11-19T10:16:28;7.97;;;6.72;;
15655;SDS011;7928;43.614;1.456;2023-11-19T10:18:56;9.18;;;7.10;;
15655;SDS011;7928;43.614;1.456;2023-11-19T10:21:23;9.55;;;7.03;;
15655;SDS011;7928;43.614;1.456;2023-11-19T10:23:53;8.85;;;6.95;;
15655;SDS011;7928;43.614;1.456;2023-11-19T10:26:22;7.97;;;6.75;;
15655;SDS011;7928;43.614;1.456;2023-11-19T10:28:51;7.65;;;6.85;;
15655;SDS011;7928;43.614;1.456;2023-11-19T10:31:18;7.53;;;6.78;;
15655;SDS011;7928;43.614;1.456;2023-11-19T10:33:49;8.15;;;6.55;;
15655;SDS011;7928;43.614;1.456;2023-11-19T10:36:17;7.57;;;6.68;;
15655;SDS011;7928;43.614;1.456;2023-11-19T10:38:51;10.43;;;6.75;;
15655;SDS011;7928;43.614;1.456;2023-11-19T10:41:28;7.63;;;6.40;;
15655;SDS011;7928;43.614;1.456;2023-11-19T10:43:57;8.05;;;7.20;;
15655;SDS011;7928;43.614;1.456;2023-11-19T10:46:35;9.43;;;7.55;;
15655;SDS011;7928;43.614;1.456;2023-11-19T10:49:03;8.75;;;7.85;;
15655;SDS011;7928;43.614;1.456;2023-11-19T10:51:31;9.00;;;6.95;;
15655;SDS011;7928;43.614;1.456;2023-11-19T10:53:59;9.50;;;7.40;;
15655;SDS011;7928;43.614;1.456;2023-11-19T10:56:31;10.27;;;7.30;;
15655;SDS011;7928;43.614;1.456;2023-11-19T10:59:00;10.13;;;7.55;;
15655;SDS011;7928;43.614;1.456;2023-11-19T11:01:37;8.88;;;7.55;;
15655;SDS011;7928;43.614;1.456;2023-11-19T11:04:10;8.43;;;7.03;;
15655;SDS011;7928;43.614;1.456;2023-11-19T11:06:41;8.13;;;6.90;;
15655;SDS011;7928;43.614;1.456;2023-11-19T11:09:09;8.15;;;7.35;;
15655;SDS011;7928;43.614;1.456;2023-11-19T11:11:38;8.48;;;6.72;;
15655;SDS011;7928;43.614;1.456;2023-11-19T11:14:10;7.13;;;6.45;;
15655;SDS011;7928;43.614;1.456;2023-11-19T11:16:39;7.85;;;6.55;;
15655;SDS011;7928;43.614;1.456;2023-11-19T11:19:08;8.68;;;6.60;;
15655;SDS011;7928;43.614;1.456;2023-11-19T11:21:36;7.38;;;6.68;;
15655;SDS011;7928;43.614;1.456;2023-11-19T11:24:12;6.88;;;6.18;;
15655;SDS011;7928;43.614;1.456;2023-11-19T11:29:46;7.72;;;5.50;;
15655;SDS011;7928;43.614;1.456;2023-11-19T11:32:30;7.95;;;5.68;;
15655;SDS011;7928;43.614;1.456;2023-11-19T11:35:12;7.78;;;5.90;;
15655;SDS011;7928;43.614;1.456;2023-11-19T11:37:54;6.15;;;5.50;;
15655;SDS011;7928;43.614;1.456;2023-11-19T11:40:26;6.85;;;5.72;;
15655;SDS011;7928;43.614;1.456;2023-11-19T11:42:53;6.03;;;5.43;;
15655;SDS011;7928;43.614;1.456;2023-11-19T11:45:30;6.22;;;5.63;;
15655;SDS011;7928;43.614;1.456;2023-11-19T11:48:15;6.55;;;5.53;;
15655;SDS011;7928;43.614;1.456;2023-11-19T11:53:29;7.68;;;5.20;;
15655;SDS011;7928;43.614;1.456;2023-11-19T11:55:57;6.90;;;5.28;;
15655;SDS011;7928;43.614;1.456;2023-11-19T11:58:31;6.28;;;5.68;;
15655;SDS011;7928;43.614;1.456;2023-11-19T12:01:03;6.72;;;5.28;;
15655;SDS011;7928;43.614;1.456;2023-11-19T12:03:32;5.63;;;5.13;;
15655;SDS011;7928;43.614;1.456;2023-11-19T12:06:00;7.35;;;5.60;;
15655;SDS011;7928;43.614;1.456;2023-11-19T12:08:28;6.72;;;5.32;;
15655;SDS011;7928;43.614;1.456;2023-11-19T12:10:57;8.07;;;5.20;;
15655;SDS011;7928;43.614;1.456;2023-11-19T12:13:24;7.28;;;5.93;;
15655;SDS011;7928;43.614;1.456;2023-11-19T12:16:10;8.15;;;6.07;;
15655;SDS011;7928;43.614;1.456;2023-11-19T12:18:38;6.28;;;5.53;;
15655;SDS011;7928;43.614;1.456;2023-11-19T12:21:08;7.65;;;5.55;;
15655;SDS011;7928;43.614;1.456;2023-11-19T12:23:36;6.47;;;5.03;;
15655;SDS011;7928;43.614;1.456;2023-11-19T12:26:30;7.05;;;5.60;;
15655;SDS011;7928;43.614;1.456;2023-11-19T12:28:59;5.03;;;4.30;;
15655;SDS011;7928;43.614;1.456;2023-11-19T12:31:30;7.07;;;4.47;;
15655;SDS011;7928;43.614;1.456;2023-11-19T12:33:57;5.00;;;4.35;;
15655;SDS011;7928;43.614;1.456;2023-11-19T12:36:25;9.85;;;7.03;;
15655;SDS011;7928;43.614;1.456;2023-11-19T12:38:52;6.35;;;4.85;;
15655;SDS011;7928;43.614;1.456;2023-11-19T12:41:19;5.97;;;4.05;;
15655;SDS011;7928;43.614;1.456;2023-11-19T12:43:48;4.88;;;4.38;;
15655;SDS011;7928;43.614;1.456;2023-11-19T12:46:17;5.25;;;3.90;;
15655;SDS011;7928;43.614;1.456;2023-11-19T12:48:46;5.70;;;4.57;;
15655;SDS011;7928;43.614;1.456;2023-11-19T12:51:14;8.52;;;5.93;;
15655;SDS011;7928;43.614;1.456;2023-11-19T12:53:47;7.93;;;4.70;;
15655;SDS011;7928;43.614;1.456;2023-11-19T12:56:15;4.20;;;3.80;;
15655;SDS011;7928;43.614;1.456;2023-11-19T12:58:42;5.22;;;4.20;;
15655;SDS011;7928;43.614;1.456;2023-11-19T13:01:10;5.80;;;4.10;;
15655;SDS011;7928;43.614;1.456;2023-11-19T13:03:42;4.93;;;4.07;;
15655;SDS011;7928;43.614;1.456;2023-11-19T13:06:11;5.55;;;3.90;;
15655;SDS011;7928;43.614;1.456;2023-11-19T13:08:39;4.25;;;3.50;;
15655;SDS011;7928;43.614;1.456;2023-11-19T13:11:08;4.47;;;3.20;;
15655;SDS011;7928;43.614;1.456;2023-11-19T13:13:54;4.70;;;3.05;;
15655;SDS011;7928;43.614;1.456;2023-11-19T13:16:22;4.95;;;2.78;;
15655;SDS011;7928;43.614;1.456;2023-11-19T13:18:49;3.00;;;2.53;;
15655;SDS011;7928;43.614;1.456;2023-11-19T13:21:18;3.38;;;2.70;;
15655;SDS011;7928;43.614;1.456;2023-11-19T13:23:45;3.97;;;3.00;;
15655;SDS011;7928;43.614;1.456;2023-11-19T13:26:12;3.78;;;3.13;;
15655;SDS011;7928;43.614;1.456;2023-11-19T13:28:39;4.95;;;3.30;;
15655;SDS011;7928;43.614;1.456;2023-11-19T13:31:06;4.72;;;3.50;;
15655;SDS011;7928;43.614;1.456;2023-11-19T13:33:33;5.10;;;3.33;;
15655;SDS011;7928;43.614;1.456;2023-11-19T13:36:01;5.28;;;3.78;;
15655;SDS011;7928;43.614;1.456;2023-11-19T13:38:32;5.00;;;3.38;;
15655;SDS011;7928;43.614;1.456;2023-11-19T13:40:59;5.75;;;4.15;;
15655;SDS011;7928;43.614;1.456;2023-11-19T13:43:26;4.07;;;3.67;;
15655;SDS011;7928;43.614;1.456;2023-11-19T13:45:54;3.72;;;3.08;;
15655;SDS011;7928;43.614;1.456;2023-11-19T13:48:20;4.95;;;3.47;;
15655;SDS011;7928;43.614;1.456;2023-11-19T13:50:48;7.47;;;3.47;;
15655;SDS011;7928;43.614;1.456;2023-11-19T13:53:15;5.00;;;3.60;;
15655;SDS011;7928;43.614;1.456;2023-11-19T13:55:43;4.10;;;3.20;;
15655;SDS011;7928;43.614;1.456;2023-11-19T13:58:10;4.22;;;2.95;;
15655;SDS011;7928;43.614;1.456;2023-11-19T14:00:37;4.28;;;3.00;;
15655;SDS011;7928;43.614;1.456;2023-11-19T14:03:07;3.30;;;3.00;;
15655;SDS011;7928;43.614;1.456;2023-11-19T14:05:34;4.72;;;2.65;;
15655;SDS011;7928;43.614;1.456;2023-11-19T14:08:01;4.20;;;2.65;;
15655;SDS011;7928;43.614;1.456;2023-11-19T14:10:28;4.78;;;3.45;;
15655;SDS011;7928;43.614;1.456;2023-11-19T14:12:56;5.45;;;2.50;;
15655;SDS011;7928;43.614;1.456;2023-11-19T14:15:23;4.50;;;2.85;;
15655;SDS011;7928;43.614;1.456;2023-11-19T14:17:50;3.22;;;2.60;;
15655;SDS011;7928;43.614;1.456;2023-11-19T14:20:17;4.05;;;3.00;;
15655;SDS011;7928;43.614;1.456;2023-11-19T14:22:45;3.92;;;2.90;;
15655;SDS011;7928;43.614;1.456;2023-11-19T14:25:14;4.50;;;2.55;;
15655;SDS011;7928;43.614;1.456;2023-11-19T14:27:41;4.22;;;2.47;;
15655;SDS011;7928;43.614;1.456;2023-11-19T14:30:12;2.88;;;2.25;;
15655;SDS011;7928;43.614;1.456;2023-11-19T14:32:40;2.90;;;1.63;;
15655;SDS011;7928;43.614;1.456;2023-11-19T14:35:09;2.40;;;2.20;;
15655;SDS011;7928;43.614;1.456;2023-11-19T14:37:36;3.00;;;2.10;;
15655;SDS011;7928;43.614;1.456;2023-11-19T14:40:04;3.30;;;2.50;;
15655;SDS011;7928;43.614;1.456;2023-11-19T14:42:34;4.63;;;2.47;;
15655;SDS011;7928;43.614;1.456;2023-11-19T14:45:00;5.13;;;2.38;;
15655;SDS011;7928;43.614;1.456;2023-11-19T14:47:29;3.55;;;2.40;;
15655;SDS011;7928;43.614;1.456;2023-11-19T14:49:56;3.58;;;2.40;;
15655;SDS011;7928;43.614;1.456;2023-11-19T14:52:22;3.50;;;2.35;;
15655;SDS011;7928;43.614;1.456;2023-11-19T14:54:49;3.55;;;2.40;;
15655;SDS011;7928;43.614;1.456;2023-11-19T14:57:19;3.10;;;2.35;;
15655;SDS011;7928;43.614;1.456;2023-11-19T14:59:46;3.58;;;2.75;;
15655;SDS011;7928;43.614;1.456;2023-11-19T15:02:12;3.83;;;2.70;;